sensor_id;sensor_type;location;lat;lon;timestamp;temperature;humidity
17918;DHT22;9084;50.956;3.106;2023-07-02T00:00:38;17.50;99.90
17918;DHT22;9084;50.956;3.106;2023-07-02T00:03:04;17.50;99.90
17918;DHT22;9084;50.956;3.106;2023-07-02T00:05:32;17.50;99.90
17918;DHT22;9084;50.956;3.106;2023-07-02T00:08:00;17.50;99.90
17918;DHT22;9084;50.956;3.106;2023-07-02T00:10:25;17.50;99.90
17918;DHT22;9084;50.956;3.106;2023-07-02T00:12:51;17.40;99.90
17918;DHT22;9084;50.956;3.106;2023-07-02T00:15:22;17.40;99.90
17918;DHT22;9084;50.956;3.106;2023-07-02T00:17:47;17.40;99.90
17918;DHT22;9084;50.956;3.106;2023-07-02T00:20:13;17.40;99.90
17918;DHT22;9084;50.956;3.106;2023-07-02T00:22:44;17.40;99.90
17918;DHT22;9084;50.956;3.106;2023-07-02T00:25:13;17.40;99.90
17918;DHT22;9084;50.956;3.106;2023-07-02T00:27:41;17.40;99.90
17918;DHT22;9084;50.956;3.106;2023-07-02T00:30:07;17.40;99.90
17918;DHT22;9084;50.956;3.106;2023-07-02T00:32:35;17.30;99.90
17918;DHT22;9084;50.956;3.106;2023-07-02T00:35:01;17.40;99.90
17918;DHT22;9084;50.956;3.106;2023-07-02T00:37:28;17.30;99.90
17918;DHT22;9084;50.956;3.106;2023-07-02T00:39:54;17.30;99.90
17918;DHT22;9084;50.956;3.106;2023-07-02T00:42:22;17.20;99.90
17918;DHT22;9084;50.956;3.106;2023-07-02T00:44:48;17.20;99.90
17918;DHT22;9084;50.956;3.106;2023-07-02T00:47:14;17.20;99.90
17918;DHT22;9084;50.956;3.106;2023-07-02T00:49:44;17.10;99.90
17918;DHT22;9084;50.956;3.106;2023-07-02T00:52:10;17.10;99.90
17918;DHT22;9084;50.956;3.106;2023-07-02T00:54:40;17.10;99.90
17918;DHT22;9084;50.956;3.106;2023-07-02T00:57:08;17.10;99.90
17918;DHT22;9084;50.956;3.106;2023-07-02T00:59:34;17.00;99.90
17918;DHT22;9084;50.956;3.106;2023-07-02T01:02:03;17.00;99.90
17918;DHT22;9084;50.956;3.106;2023-07-02T01:04:30;17.00;99.90
17918;DHT22;9084;50.956;3.106;2023-07-02T01:06:59;17.00;99.90
17918;DHT22;9084;50.956;3.106;2023-07-02T01:09:25;17.00;99.90
17918;DHT22;9084;50.956;3.106;2023-07-02T01:11:56;17.00;99.90
17918;DHT22;9084;50.956;3.106;2023-07-02T01:14:45;17.00;99.90
17918;DHT22;9084;50.956;3.106;2023-07-02T01:17:13;17.00;99.90
17918;DHT22;9084;50.956;3.106;2023-07-02T01:19:54;17.00;99.90
17918;DHT22;9084;50.956;3.106;2023-07-02T01:22:26;16.90;99.90
17918;DHT22;9084;50.956;3.106;2023-07-02T01:24:53;16.90;99.90
17918;DHT22;9084;50.956;3.106;2023-07-02T01:27:20;16.80;99.90
17918;DHT22;9084;50.956;3.106;2023-07-02T01:29:46;16.80;99.90
17918;DHT22;9084;50.956;3.106;2023-07-02T01:32:13;16.80;99.90
17918;DHT22;9084;50.956;3.106;2023-07-02T01:34:39;16.80;99.90
17918;DHT22;9084;50.956;3.106;2023-07-02T01:37:05;16.70;99.90
17918;DHT22;9084;50.956;3.106;2023-07-02T01:39:30;16.70;99.90
17918;DHT22;9084;50.956;3.106;2023-07-02T01:44:35;16.70;99.90
17918;DHT22;9084;50.956;3.106;2023-07-02T01:47:04;16.70;99.90
17918;DHT22;9084;50.956;3.106;2023-07-02T01:49:32;16.70;99.90
17918;DHT22;9084;50.956;3.106;2023-07-02T01:51:58;16.70;99.90
17918;DHT22;9084;50.956;3.106;2023-07-02T01:54:26;16.70;99.90
17918;DHT22;9084;50.956;3.106;2023-07-02T01:56:55;16.70;99.90
17918;DHT22;9084;50.956;3.106;2023-07-02T01:59:23;16.70;99.90
17918;DHT22;9084;50.956;3.106;2023-07-02T02:01:51;16.70;99.90
17918;DHT22;9084;50.956;3.106;2023-07-02T02:04:19;16.70;99.90
17918;DHT22;9084;50.956;3.106;2023-07-02T02:06:47;16.70;99.90
17918;DHT22;9084;50.956;3.106;2023-07-02T02:09:15;16.70;99.90
17918;DHT22;9084;50.956;3.106;2023-07-02T02:11:45;16.70;99.90
17918;DHT22;9084;50.956;3.106;2023-07-02T02:14:15;16.70;99.90
17918;DHT22;9084;50.956;3.106;2023-07-02T02:16:41;16.70;99.90
17918;DHT22;9084;50.956;3.106;2023-07-02T02:19:09;16.70;99.90
17918;DHT22;9084;50.956;3.106;2023-07-02T02:21:35;16.70;99.90
17918;DHT22;9084;50.956;3.106;2023-07-02T02:24:03;16.70;99.90
17918;DHT22;9084;50.956;3.106;2023-07-02T02:26:30;16.70;99.90
17918;DHT22;9084;50.956;3.106;2023-07-02T02:28:56;16.70;99.90
17918;DHT22;9084;50.956;3.106;2023-07-02T02:31:21;16.70;99.90
17918;DHT22;9084;50.956;3.106;2023-07-02T02:33:47;16.70;99.90
17918;DHT22;9084;50.956;3.106;2023-07-02T02:36:13;16.70;99.90
17918;DHT22;9084;50.956;3.106;2023-07-02T02:38:39;16.70;99.90
17918;DHT22;9084;50.956;3.106;2023-07-02T02:41:07;16.70;99.90
17918;DHT22;9084;50.956;3.106;2023-07-02T02:43:34;16.70;99.90
17918;DHT22;9084;50.956;3.106;2023-07-02T02:45:59;16.60;99.90
17918;DHT22;9084;50.956;3.106;2023-07-02T02:48:25;16.70;99.90
17918;DHT22;9084;50.956;3.106;2023-07-02T02:50:53;16.70;99.90
17918;DHT22;9084;50.956;3.106;2023-07-02T02:53:18;16.60;99.90
17918;DHT22;9084;50.956;3.106;2023-07-02T02:55:46;16.70;99.90
17918;DHT22;9084;50.956;3.106;2023-07-02T02:58:12;16.70;99.90
17918;DHT22;9084;50.956;3.106;2023-07-02T03:00:40;16.60;99.90
17918;DHT22;9084;50.956;3.106;2023-07-02T03:03:08;16.70;99.90
17918;DHT22;9084;50.956;3.106;2023-07-02T03:05:34;16.70;99.90
17918;DHT22;9084;50.956;3.106;2023-07-02T03:07:59;16.70;99.90
17918;DHT22;9084;50.956;3.106;2023-07-02T03:10:30;16.70;99.90
17918;DHT22;9084;50.956;3.106;2023-07-02T03:12:55;16.70;99.90
17918;DHT22;9084;50.956;3.106;2023-07-02T03:15:21;16.70;99.90
17918;DHT22;9084;50.956;3.106;2023-07-02T03:17:47;16.70;99.90
17918;DHT22;9084;50.956;3.106;2023-07-02T03:20:15;16.70;99.90
17918;DHT22;9084;50.956;3.106;2023-07-02T03:22:40;16.70;99.90
17918;DHT22;9084;50.956;3.106;2023-07-02T03:25:06;16.60;99.90
17918;DHT22;9084;50.956;3.106;2023-07-02T03:27:34;16.70;99.90
17918;DHT22;9084;50.956;3.106;2023-07-02T03:30:02;16.70;99.90
17918;DHT22;9084;50.956;3.106;2023-07-02T03:32:29;16.60;99.90
17918;DHT22;9084;50.956;3.106;2023-07-02T03:34:54;16.60;99.90
17918;DHT22;9084;50.956;3.106;2023-07-02T03:37:22;16.60;99.90
17918;DHT22;9084;50.956;3.106;2023-07-02T03:39:48;16.60;99.90
17918;DHT22;9084;50.956;3.106;2023-07-02T03:42:13;16.60;99.90
17918;DHT22;9084;50.956;3.106;2023-07-02T03:44:39;16.70;99.90
17918;DHT22;9084;50.956;3.106;2023-07-02T03:47:06;16.60;99.90
17918;DHT22;9084;50.956;3.106;2023-07-02T03:49:33;16.60;99.90
17918;DHT22;9084;50.956;3.106;2023-07-02T03:52:01;16.60;99.90
17918;DHT22;9084;50.956;3.106;2023-07-02T03:54:27;16.60;99.90
17918;DHT22;9084;50.956;3.106;2023-07-02T03:56:53;16.60;99.90
17918;DHT22;9084;50.956;3.106;2023-07-02T03:59:20;16.60;99.90
17918;DHT22;9084;50.956;3.106;2023-07-02T04:01:46;16.60;99.90
17918;DHT22;9084;50.956;3.106;2023-07-02T04:04:12;16.60;99.90
17918;DHT22;9084;50.956;3.106;2023-07-02T04:06:40;16.60;99.90
17918;DHT22;9084;50.956;3.106;2023-07-02T04:09:08;16.60;99.90
17918;DHT22;9084;50.956;3.106;2023-07-02T04:11:34;16.60;99.90
17918;DHT22;9084;50.956;3.106;2023-07-02T04:13:59;16.60;99.90
17918;DHT22;9084;50.956;3.106;2023-07-02T04:16:27;16.50;99.90
17918;DHT22;9084;50.956;3.106;2023-07-02T04:18:53;16.60;99.90
17918;DHT22;9084;50.956;3.106;2023-07-02T04:21:19;16.60;99.90
17918;DHT22;9084;50.956;3.106;2023-07-02T04:23:44;16.60;99.90
17918;DHT22;9084;50.956;3.106;2023-07-02T04:26:12;16.70;99.90
17918;DHT22;9084;50.956;3.106;2023-07-02T04:28:38;16.70;99.90
17918;DHT22;9084;50.956;3.106;2023-07-02T04:31:03;16.70;99.90
17918;DHT22;9084;50.956;3.106;2023-07-02T04:33:31;16.80;99.90
17918;DHT22;9084;50.956;3.106;2023-07-02T04:36:02;16.80;99.90
17918;DHT22;9084;50.956;3.106;2023-07-02T04:38:28;16.80;99.90
17918;DHT22;9084;50.956;3.106;2023-07-02T04:40:54;16.80;99.90
17918;DHT22;9084;50.956;3.106;2023-07-02T04:43:29;16.80;99.90
17918;DHT22;9084;50.956;3.106;2023-07-02T04:45:58;16.90;99.90
17918;DHT22;9084;50.956;3.106;2023-07-02T04:48:26;16.90;99.90
17918;DHT22;9084;50.956;3.106;2023-07-02T04:50:51;17.00;99.90
17918;DHT22;9084;50.956;3.106;2023-07-02T04:53:17;16.90;99.90
17918;DHT22;9084;50.956;3.106;2023-07-02T04:55:43;17.00;99.90
17918;DHT22;9084;50.956;3.106;2023-07-02T04:58:09;17.00;99.90
17918;DHT22;9084;50.956;3.106;2023-07-02T05:00:36;17.00;99.90
17918;DHT22;9084;50.956;3.106;2023-07-02T05:03:04;17.00;99.90
17918;DHT22;9084;50.956;3.106;2023-07-02T05:05:30;17.10;99.90
17918;DHT22;9084;50.956;3.106;2023-07-02T05:07:58;17.10;99.90
17918;DHT22;9084;50.956;3.106;2023-07-02T05:10:23;17.20;99.90
17918;DHT22;9084;50.956;3.106;2023-07-02T05:12:49;17.20;99.90
17918;DHT22;9084;50.956;3.106;2023-07-02T05:15:19;17.20;99.90
17918;DHT22;9084;50.956;3.106;2023-07-02T05:17:45;17.30;99.90
17918;DHT22;9084;50.956;3.106;2023-07-02T05:20:13;17.30;99.90
17918;DHT22;9084;50.956;3.106;2023-07-02T05:22:38;17.40;99.90
17918;DHT22;9084;50.956;3.106;2023-07-02T05:25:09;17.40;99.90
17918;DHT22;9084;50.956;3.106;2023-07-02T05:27:37;17.60;99.90
17918;DHT22;9084;50.956;3.106;2023-07-02T05:30:03;17.60;99.90
17918;DHT22;9084;50.956;3.106;2023-07-02T05:32:34;17.70;99.90
17918;DHT22;9084;50.956;3.106;2023-07-02T05:35:00;17.80;99.90
17918;DHT22;9084;50.956;3.106;2023-07-02T05:37:28;17.80;99.90
17918;DHT22;9084;50.956;3.106;2023-07-02T05:39:55;17.90;99.90
17918;DHT22;9084;50.956;3.106;2023-07-02T05:42:21;18.00;99.90
17918;DHT22;9084;50.956;3.106;2023-07-02T05:44:47;17.90;99.90
17918;DHT22;9084;50.956;3.106;2023-07-02T05:47:14;17.90;99.90
17918;DHT22;9084;50.956;3.106;2023-07-02T05:49:42;18.00;99.90
17918;DHT22;9084;50.956;3.106;2023-07-02T05:52:08;18.10;99.90
17918;DHT22;9084;50.956;3.106;2023-07-02T05:54:33;18.10;99.90
17918;DHT22;9084;50.956;3.106;2023-07-02T05:57:01;18.10;99.90
17918;DHT22;9084;50.956;3.106;2023-07-02T05:59:28;18.20;99.90
17918;DHT22;9084;50.956;3.106;2023-07-02T06:01:55;18.30;99.90
17918;DHT22;9084;50.956;3.106;2023-07-02T06:04:24;18.30;99.90
17918;DHT22;9084;50.956;3.106;2023-07-02T06:06:49;18.40;99.90
17918;DHT22;9084;50.956;3.106;2023-07-02T06:09:17;18.40;99.90
17918;DHT22;9084;50.956;3.106;2023-07-02T06:11:42;18.50;99.90
17918;DHT22;9084;50.956;3.106;2023-07-02T06:14:08;18.50;99.90
17918;DHT22;9084;50.956;3.106;2023-07-02T06:16:34;18.60;99.90
17918;DHT22;9084;50.956;3.106;2023-07-02T06:19:02;18.60;99.90
17918;DHT22;9084;50.956;3.106;2023-07-02T06:21:32;18.60;99.90
17918;DHT22;9084;50.956;3.106;2023-07-02T06:23:58;18.70;99.90
17918;DHT22;9084;50.956;3.106;2023-07-02T06:26:24;18.70;99.90
17918;DHT22;9084;50.956;3.106;2023-07-02T06:28:49;18.60;99.90
17918;DHT22;9084;50.956;3.106;2023-07-02T06:31:17;18.70;99.90
17918;DHT22;9084;50.956;3.106;2023-07-02T06:33:43;18.70;99.90
17918;DHT22;9084;50.956;3.106;2023-07-02T06:36:09;18.70;99.90
17918;DHT22;9084;50.956;3.106;2023-07-02T06:38:36;18.70;99.90
17918;DHT22;9084;50.956;3.106;2023-07-02T06:41:03;18.80;99.90
17918;DHT22;9084;50.956;3.106;2023-07-02T06:43:31;18.90;99.90
17918;DHT22;9084;50.956;3.106;2023-07-02T06:45:57;18.80;99.90
17918;DHT22;9084;50.956;3.106;2023-07-02T06:48:22;18.80;99.90
17918;DHT22;9084;50.956;3.106;2023-07-02T06:50:48;18.90;99.90
17918;DHT22;9084;50.956;3.106;2023-07-02T06:53:16;19.00;99.90
17918;DHT22;9084;50.956;3.106;2023-07-02T06:55:41;19.10;99.90
17918;DHT22;9084;50.956;3.106;2023-07-02T06:58:08;19.20;99.90
17918;DHT22;9084;50.956;3.106;2023-07-02T07:00:36;19.30;99.90
17918;DHT22;9084;50.956;3.106;2023-07-02T07:03:05;19.40;99.90
17918;DHT22;9084;50.956;3.106;2023-07-02T07:05:33;19.50;99.90
17918;DHT22;9084;50.956;3.106;2023-07-02T07:08:01;19.40;99.90
17918;DHT22;9084;50.956;3.106;2023-07-02T07:10:29;19.40;99.90
17918;DHT22;9084;50.956;3.106;2023-07-02T07:13:02;19.40;99.90
17918;DHT22;9084;50.956;3.106;2023-07-02T07:15:31;19.50;99.90
17918;DHT22;9084;50.956;3.106;2023-07-02T07:17:57;19.60;99.90
17918;DHT22;9084;50.956;3.106;2023-07-02T07:20:23;19.60;99.90
17918;DHT22;9084;50.956;3.106;2023-07-02T07:22:49;19.70;99.90
17918;DHT22;9084;50.956;3.106;2023-07-02T07:25:17;19.80;99.90
17918;DHT22;9084;50.956;3.106;2023-07-02T07:27:42;19.90;99.90
17918;DHT22;9084;50.956;3.106;2023-07-02T07:30:08;19.90;99.90
17918;DHT22;9084;50.956;3.106;2023-07-02T07:32:34;20.00;99.90
17918;DHT22;9084;50.956;3.106;2023-07-02T07:35:02;20.00;99.90
17918;DHT22;9084;50.956;3.106;2023-07-02T07:37:30;20.10;99.90
17918;DHT22;9084;50.956;3.106;2023-07-02T07:39:55;20.20;99.90
17918;DHT22;9084;50.956;3.106;2023-07-02T07:42:24;20.20;99.90
17918;DHT22;9084;50.956;3.106;2023-07-02T07:44:52;20.30;99.90
17918;DHT22;9084;50.956;3.106;2023-07-02T07:47:18;20.40;99.90
17918;DHT22;9084;50.956;3.106;2023-07-02T07:49:46;20.40;99.60
17918;DHT22;9084;50.956;3.106;2023-07-02T07:52:12;20.40;98.80
17918;DHT22;9084;50.956;3.106;2023-07-02T07:54:37;20.50;97.50
17918;DHT22;9084;50.956;3.106;2023-07-02T07:57:06;20.60;98.80
17918;DHT22;9084;50.956;3.106;2023-07-02T07:59:32;20.80;97.70
17918;DHT22;9084;50.956;3.106;2023-07-02T08:02:00;20.80;96.50
17918;DHT22;9084;50.956;3.106;2023-07-02T08:04:26;20.90;95.70
17918;DHT22;9084;50.956;3.106;2023-07-02T08:06:51;21.00;94.40
17918;DHT22;9084;50.956;3.106;2023-07-02T08:09:17;21.00;93.60
17918;DHT22;9084;50.956;3.106;2023-07-02T08:11:43;21.10;93.50
17918;DHT22;9084;50.956;3.106;2023-07-02T08:14:08;21.20;91.50
17918;DHT22;9084;50.956;3.106;2023-07-02T08:16:36;21.20;92.00
17918;DHT22;9084;50.956;3.106;2023-07-02T08:19:04;21.10;91.40
17918;DHT22;9084;50.956;3.106;2023-07-02T08:21:30;21.10;91.40
17918;DHT22;9084;50.956;3.106;2023-07-02T08:23:58;21.00;91.10
17918;DHT22;9084;50.956;3.106;2023-07-02T08:26:24;21.00;91.50
17918;DHT22;9084;50.956;3.106;2023-07-02T08:28:50;21.00;90.80
17918;DHT22;9084;50.956;3.106;2023-07-02T08:31:16;21.00;89.30
17918;DHT22;9084;50.956;3.106;2023-07-02T08:33:42;21.00;89.20
17918;DHT22;9084;50.956;3.106;2023-07-02T08:36:10;20.80;86.60
17918;DHT22;9084;50.956;3.106;2023-07-02T08:38:38;20.60;86.40
17918;DHT22;9084;50.956;3.106;2023-07-02T08:41:05;20.40;88.90
17918;DHT22;9084;50.956;3.106;2023-07-02T08:43:30;20.30;89.60
17918;DHT22;9084;50.956;3.106;2023-07-02T08:45:59;20.20;87.90
17918;DHT22;9084;50.956;3.106;2023-07-02T08:48:28;20.20;88.00
17918;DHT22;9084;50.956;3.106;2023-07-02T08:50:56;20.20;88.20
17918;DHT22;9084;50.956;3.106;2023-07-02T08:53:24;20.30;90.00
17918;DHT22;9084;50.956;3.106;2023-07-02T08:55:57;20.50;90.80
17918;DHT22;9084;50.956;3.106;2023-07-02T08:58:23;20.60;84.90
17918;DHT22;9084;50.956;3.106;2023-07-02T09:03:34;21.10;80.30
17918;DHT22;9084;50.956;3.106;2023-07-02T09:06:03;21.30;80.50
17918;DHT22;9084;50.956;3.106;2023-07-02T09:08:31;21.40;80.60
17918;DHT22;9084;50.956;3.106;2023-07-02T09:11:15;21.10;79.70
17918;DHT22;9084;50.956;3.106;2023-07-02T09:16:19;20.70;78.20
17918;DHT22;9084;50.956;3.106;2023-07-02T09:19:04;20.70;78.80
17918;DHT22;9084;50.956;3.106;2023-07-02T09:21:48;20.80;79.30
17918;DHT22;9084;50.956;3.106;2023-07-02T09:24:17;21.20;78.70
17918;DHT22;9084;50.956;3.106;2023-07-02T09:29:11;21.40;77.60
17918;DHT22;9084;50.956;3.106;2023-07-02T09:31:46;21.40;77.60
17918;DHT22;9084;50.956;3.106;2023-07-02T09:34:12;21.40;79.10
17918;DHT22;9084;50.956;3.106;2023-07-02T09:36:38;21.40;80.00
17918;DHT22;9084;50.956;3.106;2023-07-02T09:39:12;21.40;79.10
17918;DHT22;9084;50.956;3.106;2023-07-02T09:41:41;21.40;81.00
17918;DHT22;9084;50.956;3.106;2023-07-02T09:44:12;21.60;80.70
17918;DHT22;9084;50.956;3.106;2023-07-02T09:46:48;21.70;79.00
17918;DHT22;9084;50.956;3.106;2023-07-02T09:49:16;21.90;77.20
17918;DHT22;9084;50.956;3.106;2023-07-02T09:51:43;22.00;76.60
17918;DHT22;9084;50.956;3.106;2023-07-02T09:54:10;22.10;75.50
17918;DHT22;9084;50.956;3.106;2023-07-02T09:56:39;21.90;73.30
17918;DHT22;9084;50.956;3.106;2023-07-02T09:59:09;21.90;74.00
17918;DHT22;9084;50.956;3.106;2023-07-02T10:01:35;22.00;72.80
17918;DHT22;9084;50.956;3.106;2023-07-02T10:04:13;21.90;72.90
17918;DHT22;9084;50.956;3.106;2023-07-02T10:06:52;21.70;75.00
17918;DHT22;9084;50.956;3.106;2023-07-02T10:09:20;21.60;74.40
17918;DHT22;9084;50.956;3.106;2023-07-02T10:11:46;21.70;75.50
17918;DHT22;9084;50.956;3.106;2023-07-02T10:14:14;21.70;74.60
17918;DHT22;9084;50.956;3.106;2023-07-02T10:16:49;21.70;73.80
17918;DHT22;9084;50.956;3.106;2023-07-02T10:19:18;21.90;74.80
17918;DHT22;9084;50.956;3.106;2023-07-02T10:21:44;22.00;72.80
17918;DHT22;9084;50.956;3.106;2023-07-02T10:24:16;22.00;71.50
17918;DHT22;9084;50.956;3.106;2023-07-02T10:29:23;22.20;67.90
17918;DHT22;9084;50.956;3.106;2023-07-02T10:31:56;22.40;69.30
17918;DHT22;9084;50.956;3.106;2023-07-02T10:34:33;22.70;67.30
17918;DHT22;9084;50.956;3.106;2023-07-02T10:37:04;22.90;68.20
17918;DHT22;9084;50.956;3.106;2023-07-02T10:39:38;22.90;65.60
17918;DHT22;9084;50.956;3.106;2023-07-02T10:44:33;22.60;67.10
17918;DHT22;9084;50.956;3.106;2023-07-02T10:46:59;22.70;68.80
17918;DHT22;9084;50.956;3.106;2023-07-02T10:49:35;22.90;67.40
17918;DHT22;9084;50.956;3.106;2023-07-02T10:52:03;23.10;66.00
17918;DHT22;9084;50.956;3.106;2023-07-02T10:54:42;23.30;66.10
17918;DHT22;9084;50.956;3.106;2023-07-02T10:57:09;23.60;63.70
17918;DHT22;9084;50.956;3.106;2023-07-02T10:59:35;23.70;63.10
17918;DHT22;9084;50.956;3.106;2023-07-02T11:02:01;23.80;63.90
17918;DHT22;9084;50.956;3.106;2023-07-02T11:04:30;23.70;60.70
17918;DHT22;9084;50.956;3.106;2023-07-02T11:06:56;23.50;61.30
17918;DHT22;9084;50.956;3.106;2023-07-02T11:09:21;23.40;63.00
17918;DHT22;9084;50.956;3.106;2023-07-02T11:11:57;23.60;64.70
17918;DHT22;9084;50.956;3.106;2023-07-02T11:14:41;23.70;61.30
17918;DHT22;9084;50.956;3.106;2023-07-02T11:17:07;23.70;61.50
17918;DHT22;9084;50.956;3.106;2023-07-02T11:19:33;23.80;61.40
17918;DHT22;9084;50.956;3.106;2023-07-02T11:22:00;23.90;61.90
17918;DHT22;9084;50.956;3.106;2023-07-02T11:24:34;23.90;60.50
17918;DHT22;9084;50.956;3.106;2023-07-02T11:27:04;23.90;59.40
17918;DHT22;9084;50.956;3.106;2023-07-02T11:29:34;23.80;61.30
17918;DHT22;9084;50.956;3.106;2023-07-02T11:32:10;23.70;59.10
17918;DHT22;9084;50.956;3.106;2023-07-02T11:34:39;23.70;60.30
17918;DHT22;9084;50.956;3.106;2023-07-02T11:37:08;23.70;60.00
17918;DHT22;9084;50.956;3.106;2023-07-02T11:39:33;24.00;59.80
17918;DHT22;9084;50.956;3.106;2023-07-02T11:42:01;24.00;59.10
17918;DHT22;9084;50.956;3.106;2023-07-02T11:44:27;23.90;59.10
17918;DHT22;9084;50.956;3.106;2023-07-02T11:46:52;23.80;59.10
17918;DHT22;9084;50.956;3.106;2023-07-02T11:49:18;23.80;60.50
17918;DHT22;9084;50.956;3.106;2023-07-02T11:51:46;23.90;60.70
17918;DHT22;9084;50.956;3.106;2023-07-02T11:54:19;24.20;60.50
17918;DHT22;9084;50.956;3.106;2023-07-02T11:56:45;24.30;57.90
17918;DHT22;9084;50.956;3.106;2023-07-02T11:59:11;24.20;58.30
17918;DHT22;9084;50.956;3.106;2023-07-02T12:01:38;23.80;58.20
17918;DHT22;9084;50.956;3.106;2023-07-02T12:04:04;23.60;59.80
17918;DHT22;9084;50.956;3.106;2023-07-02T12:06:31;23.60;59.60
17918;DHT22;9084;50.956;3.106;2023-07-02T12:08:57;23.80;59.20
17918;DHT22;9084;50.956;3.106;2023-07-02T12:11:22;23.90;58.90
17918;DHT22;9084;50.956;3.106;2023-07-02T12:13:50;24.00;59.10
17918;DHT22;9084;50.956;3.106;2023-07-02T12:16:18;24.00;58.20
17918;DHT22;9084;50.956;3.106;2023-07-02T12:18:46;24.10;59.00
17918;DHT22;9084;50.956;3.106;2023-07-02T12:21:14;24.30;57.20
17918;DHT22;9084;50.956;3.106;2023-07-02T12:23:46;24.10;57.00
17918;DHT22;9084;50.956;3.106;2023-07-02T12:26:12;24.00;57.80
17918;DHT22;9084;50.956;3.106;2023-07-02T12:28:37;24.00;57.70
17918;DHT22;9084;50.956;3.106;2023-07-02T12:31:03;24.20;57.30
17918;DHT22;9084;50.956;3.106;2023-07-02T12:33:29;24.30;58.30
17918;DHT22;9084;50.956;3.106;2023-07-02T12:35:54;24.20;58.50
17918;DHT22;9084;50.956;3.106;2023-07-02T12:38:20;24.10;58.00
17918;DHT22;9084;50.956;3.106;2023-07-02T12:40:46;24.30;58.80
17918;DHT22;9084;50.956;3.106;2023-07-02T12:43:16;24.30;57.20
17918;DHT22;9084;50.956;3.106;2023-07-02T12:45:45;24.20;56.50
17918;DHT22;9084;50.956;3.106;2023-07-02T12:48:11;24.00;56.50
17918;DHT22;9084;50.956;3.106;2023-07-02T12:50:39;24.10;57.50
17918;DHT22;9084;50.956;3.106;2023-07-02T12:53:07;24.20;56.70
17918;DHT22;9084;50.956;3.106;2023-07-02T12:55:33;24.20;57.50
17918;DHT22;9084;50.956;3.106;2023-07-02T12:57:58;24.30;57.10
17918;DHT22;9084;50.956;3.106;2023-07-02T13:00:26;24.40;57.80
17918;DHT22;9084;50.956;3.106;2023-07-02T13:02:52;24.20;56.80
17918;DHT22;9084;50.956;3.106;2023-07-02T13:05:18;24.00;56.40
17918;DHT22;9084;50.956;3.106;2023-07-02T13:07:43;23.90;57.70
17918;DHT22;9084;50.956;3.106;2023-07-02T13:10:11;23.90;58.20
17918;DHT22;9084;50.956;3.106;2023-07-02T13:12:37;23.90;57.70
17918;DHT22;9084;50.956;3.106;2023-07-02T13:15:07;23.80;59.70
17918;DHT22;9084;50.956;3.106;2023-07-02T13:17:33;23.70;59.70
17918;DHT22;9084;50.956;3.106;2023-07-02T13:19:59;23.90;59.00
17918;DHT22;9084;50.956;3.106;2023-07-02T13:22:24;24.10;60.00
17918;DHT22;9084;50.956;3.106;2023-07-02T13:24:52;24.50;57.20
17918;DHT22;9084;50.956;3.106;2023-07-02T13:27:18;24.70;57.80
17918;DHT22;9084;50.956;3.106;2023-07-02T13:29:44;25.00;57.30
17918;DHT22;9084;50.956;3.106;2023-07-02T13:32:12;24.80;57.00
17918;DHT22;9084;50.956;3.106;2023-07-02T13:34:40;24.90;56.00
17918;DHT22;9084;50.956;3.106;2023-07-02T13:37:08;24.70;56.90
17918;DHT22;9084;50.956;3.106;2023-07-02T13:39:33;24.50;56.10
17918;DHT22;9084;50.956;3.106;2023-07-02T13:41:59;24.60;56.60
17918;DHT22;9084;50.956;3.106;2023-07-02T13:44:25;24.80;56.40
17918;DHT22;9084;50.956;3.106;2023-07-02T13:46:50;24.90;55.10
17918;DHT22;9084;50.956;3.106;2023-07-02T13:49:20;24.90;54.90
17918;DHT22;9084;50.956;3.106;2023-07-02T13:51:49;24.60;56.00
17918;DHT22;9084;50.956;3.106;2023-07-02T13:54:18;24.40;55.50
17918;DHT22;9084;50.956;3.106;2023-07-02T13:56:45;24.30;57.20
17918;DHT22;9084;50.956;3.106;2023-07-02T13:59:11;24.30;55.70
17918;DHT22;9084;50.956;3.106;2023-07-02T14:01:39;24.30;57.80
17918;DHT22;9084;50.956;3.106;2023-07-02T14:04:05;24.30;57.30
17918;DHT22;9084;50.956;3.106;2023-07-02T14:06:30;24.40;56.30
17918;DHT22;9084;50.956;3.106;2023-07-02T14:09:01;24.30;56.20
17918;DHT22;9084;50.956;3.106;2023-07-02T14:11:32;24.10;57.40
17918;DHT22;9084;50.956;3.106;2023-07-02T14:13:58;23.90;57.50
17918;DHT22;9084;50.956;3.106;2023-07-02T14:16:28;23.90;58.50
17918;DHT22;9084;50.956;3.106;2023-07-02T14:18:54;24.10;59.00
17918;DHT22;9084;50.956;3.106;2023-07-02T14:21:22;24.10;57.90
17918;DHT22;9084;50.956;3.106;2023-07-02T14:23:48;24.10;57.60
17918;DHT22;9084;50.956;3.106;2023-07-02T14:26:16;23.90;57.80
17918;DHT22;9084;50.956;3.106;2023-07-02T14:28:41;23.90;57.70
17918;DHT22;9084;50.956;3.106;2023-07-02T14:31:07;23.90;57.00
17918;DHT22;9084;50.956;3.106;2023-07-02T14:33:35;24.00;56.80
17918;DHT22;9084;50.956;3.106;2023-07-02T14:36:01;24.20;55.70
17918;DHT22;9084;50.956;3.106;2023-07-02T14:38:28;24.50;57.40
17918;DHT22;9084;50.956;3.106;2023-07-02T14:40:54;24.40;56.00
17918;DHT22;9084;50.956;3.106;2023-07-02T14:43:22;24.20;56.10
17918;DHT22;9084;50.956;3.106;2023-07-02T14:45:50;23.80;57.60
17918;DHT22;9084;50.956;3.106;2023-07-02T14:48:16;23.70;58.30
17918;DHT22;9084;50.956;3.106;2023-07-02T14:50:45;24.00;57.70
17918;DHT22;9084;50.956;3.106;2023-07-02T14:53:13;24.00;57.20
17918;DHT22;9084;50.956;3.106;2023-07-02T14:55:39;23.90;57.60
17918;DHT22;9084;50.956;3.106;2023-07-02T14:58:05;23.80;57.50
17918;DHT22;9084;50.956;3.106;2023-07-02T15:00:30;23.70;56.90
17918;DHT22;9084;50.956;3.106;2023-07-02T15:02:58;23.90;58.10
17918;DHT22;9084;50.956;3.106;2023-07-02T15:05:26;24.10;57.10
17918;DHT22;9084;50.956;3.106;2023-07-02T15:07:51;24.10;57.00
17918;DHT22;9084;50.956;3.106;2023-07-02T15:10:19;24.20;56.70
17918;DHT22;9084;50.956;3.106;2023-07-02T15:12:45;24.10;56.00
17918;DHT22;9084;50.956;3.106;2023-07-02T15:15:11;23.90;55.80
17918;DHT22;9084;50.956;3.106;2023-07-02T15:17:38;23.90;56.00
17918;DHT22;9084;50.956;3.106;2023-07-02T15:20:04;24.00;58.90
17918;DHT22;9084;50.956;3.106;2023-07-02T15:22:34;24.10;57.50
17918;DHT22;9084;50.956;3.106;2023-07-02T15:25:00;23.80;58.00
17918;DHT22;9084;50.956;3.106;2023-07-02T15:27:26;23.60;58.80
17918;DHT22;9084;50.956;3.106;2023-07-02T15:29:55;23.50;59.10
17918;DHT22;9084;50.956;3.106;2023-07-02T15:32:24;23.50;58.30
17918;DHT22;9084;50.956;3.106;2023-07-02T15:34:49;23.50;58.50
17918;DHT22;9084;50.956;3.106;2023-07-02T15:37:18;23.30;58.40
17918;DHT22;9084;50.956;3.106;2023-07-02T15:39:43;23.40;59.90
17918;DHT22;9084;50.956;3.106;2023-07-02T15:42:11;23.50;59.30
17918;DHT22;9084;50.956;3.106;2023-07-02T15:44:39;23.60;58.70
17918;DHT22;9084;50.956;3.106;2023-07-02T15:47:05;23.60;57.80
17918;DHT22;9084;50.956;3.106;2023-07-02T15:49:30;23.40;57.90
17918;DHT22;9084;50.956;3.106;2023-07-02T15:51:56;23.00;58.90
17918;DHT22;9084;50.956;3.106;2023-07-02T15:54:24;23.20;60.40
17918;DHT22;9084;50.956;3.106;2023-07-02T15:56:49;23.10;58.10
17918;DHT22;9084;50.956;3.106;2023-07-02T15:59:15;23.00;58.40
17918;DHT22;9084;50.956;3.106;2023-07-02T16:01:42;23.00;58.20